Time;durP1;ratioP1;P1;durP2;ratioP2;P2;SDS_P1;SDS_P2;PMS_P1;PMS_P2;Temp;Humidity;BMP_temperature;BMP_pressure;BME280_temperature;BME280_humidity;BME280_pressure;Samples;Min_cycle;Max_cycle;Signal;HPM_P1;HPM_P2
2022/12/17 13:08:08;;;;;;;72.38;39.50;;;;;;;;;;5110563;27;20410;-75
2022/12/17 13:10:35;;;;;;;74.25;41.55;;;;;;;;;;5113458;27;20426;-75
2022/12/17 13:13:12;;;;;;;74.00;40.40;;;;;;;;;;5114605;27;20464;-75
2022/12/17 13:15:42;;;;;;;80.93;42.10;;;;;;;;;;5110924;27;20897;-75
2022/12/17 13:18:34;;;;;;;72.63;40.58;;;0.70;99.90;;;;;;5106260;27;20418;-75
2022/12/17 13:21:05;;;;;;;78.20;41.35;;;;;;;;;;5098401;27;20421;-75
2022/12/17 13:23:35;;;;;;;77.40;41.08;;;;;;;;;;5099263;27;20428;-75
2022/12/17 13:26:14;;;;;;;68.57;39.53;;;;;;;;;;5086190;27;20735;-72
2022/12/17 13:28:40;;;;;;;78.22;40.00;;;;;;;;;;5104120;28;20420;-75
2022/12/17 13:31:15;;;;;;;77.55;39.80;;;;;;;;;;5079699;27;20480;-75
2022/12/17 13:33:59;;;;;;;78.28;41.45;;;;;;;;;;5103262;27;20411;-74
2022/12/17 13:36:32;;;;;;;74.88;39.33;;;;;;;;;;5089331;28;20737;-75
2022/12/17 13:39:01;;;;;;;78.05;39.63;;;;;;;;;;5094706;27;20425;-75
2022/12/17 13:41:34;;;;;;;76.78;40.03;;;;;;;;;;5098887;28;20766;-74
2022/12/17 13:44:17;;;;;;;85.57;41.17;;;;;;;;;;5105438;28;20485;-74
2022/12/17 13:46:48;;;;;;;76.57;41.03;;;;;;;;;;5111718;27;20472;-83
2022/12/17 13:49:28;;;;;;;75.22;38.30;;;;;;;;;;5078734;28;20412;-83
2022/12/17 13:52:00;;;;;;;77.03;39.55;;;;;;;;;;5086971;28;20973;-82
2022/12/17 13:54:27;;;;;;;79.70;41.00;;;;;;;;;;5114930;28;20455;-82
2022/12/17 13:56:53;;;;;;;76.65;41.13;;;;;;;;;;5108545;28;20412;-83
2022/12/17 13:59:21;;;;;;;72.35;38.83;;;;;;;;;;5095715;28;20422;-74
2022/12/17 14:01:48;;;;;;;77.43;39.78;;;;;;;;;;5099506;28;20415;-74
2022/12/17 14:04:23;;;;;;;76.68;38.50;;;;;;;;;;5096475;27;20402;-74
2022/12/17 14:06:49;;;;;;;82.90;42.05;;;;;;;;;;5093867;28;20966;-74
2022/12/17 14:09:17;;;;;;;75.32;41.47;;;;;;;;;;5097709;28;20821;-74
2022/12/17 14:14:40;;;;;;;81.28;40.28;;;;;;;;;;5099479;27;20469;-75
2022/12/17 14:17:06;;;;;;;77.38;42.30;;;;;;;;;;5099560;28;20446;-75
2022/12/17 14:19:33;;;;;;;76.45;39.80;;;;;;;;;;5097658;28;20986;-75
2022/12/17 14:22:00;;;;;;;92.00;43.67;;;;;;;;;;5104592;27;20493;-75
2022/12/17 14:24:28;;;;;;;84.30;41.60;;;;;;;;;;5118173;27;20477;-75
2022/12/17 14:26:58;;;;;;;82.68;41.08;;;;;;;;;;5114713;27;20414;-74
2022/12/17 14:29:25;;;;;;;77.33;41.00;;;;;;;;;;5113005;27;20460;-74
2022/12/17 14:31:56;;;;;;;82.72;40.63;;;;;;;;;;5107841;27;20501;-74
2022/12/17 14:34:22;;;;;;;77.95;42.28;;;;;;;;;;5118161;27;20485;-73
2022/12/17 14:36:53;;;;;;;95.68;43.45;;;;;;;;;;5093770;27;20551;-74
2022/12/17 14:39:22;;;;;;;78.95;41.15;;;;;;;;;;5096912;28;20427;-75
2022/12/17 14:44:33;;;;;;;86.35;43.15;;;;;;;;;;5106855;28;20903;-75
2022/12/17 14:47:20;;;;;;;85.72;44.45;;;;;;;;;;5103300;27;20974;-74
2022/12/17 14:50:06;;;;;;;84.88;41.50;;;;;;;;;;5102642;27;20911;-75
2022/12/17 14:52:35;;;;;;;85.25;42.95;;;;;;;;;;5079846;28;20960;-74
2022/12/17 14:55:01;;;;;;;93.20;44.50;;;;;;;;;;5096940;27;20481;-73
2022/12/17 14:57:28;;;;;;;93.18;46.17;;;;;;;;;;5077649;28;20482;-75
2022/12/17 14:59:54;;;;;;;93.25;44.95;;;;;;;;;;5080202;28;20415;-75
2022/12/17 15:02:24;;;;;;;89.80;44.70;;;;;;;;;;5082070;27;20430;-74
2022/12/17 15:04:52;;;;;;;92.22;45.50;;;;;;;;;;5110295;28;20408;-76
2022/12/17 15:07:23;;;;;;;90.03;44.17;;;;;;;;;;5097459;28;20412;-75
2022/12/17 15:09:51;;;;;;;88.35;42.40;;;;;;;;;;5103530;27;20419;-75
2022/12/17 15:12:17;;;;;;;122.53;46.83;;;;;;;;;;5115029;27;20422;-76
2022/12/17 15:14:43;;;;;;;108.67;46.70;;;;;;;;;;5096337;27;20556;-75
2022/12/17 15:17:09;;;;;;;110.47;44.38;;;;;;;;;;5116071;27;20778;-75
2022/12/17 15:19:35;;;;;;;103.38;45.35;;;;;;;;;;5117095;27;20879;-75
2022/12/17 15:22:02;;;;;;;97.30;43.22;;;;;;;;;;5114927;27;20412;-75
2022/12/17 15:24:28;;;;;;;314.13;59.17;;;;;;;;;;5103726;27;20747;-75
2022/12/17 15:26:54;;;;;;;99.50;44.30;;;;;;;;;;5108367;27;20418;-75
2022/12/17 15:29:20;;;;;;;93.88;43.67;;;;;;;;;;5100275;27;20467;-75
2022/12/17 15:31:46;;;;;;;137.40;47.30;;;;;;;;;;5100102;27;20398;-75
2022/12/17 15:34:13;;;;;;;165.35;49.35;;;;;;;;;;5116519;27;20399;-76
2022/12/17 15:36:39;;;;;;;95.40;42.15;;;;;;;;;;5097979;27;20416;-75
2022/12/17 15:39:05;;;;;;;86.80;39.97;;;;;;;;;;5096950;27;20757;-74
2022/12/17 15:44:16;;;;;;;93.15;40.13;;;;;;;;;;5116609;27;20422;-75
2022/12/17 15:46:42;;;;;;;95.97;41.38;;;;;;;;;;5080849;28;20420;-75
2022/12/17 15:49:08;;;;;;;101.10;43.03;;;;;;;;;;5099997;27;20412;-75
2022/12/17 15:51:34;;;;;;;97.05;42.67;;;;;;;;;;5105711;27;20411;-74
2022/12/17 15:54:00;;;;;;;97.68;42.83;;;;;;;;;;5108448;28;20762;-74
2022/12/17 15:56:27;;;;;;;97.53;43.28;;;;;;;;;;5096343;28;20468;-73
2022/12/17 15:58:57;;;;;;;98.38;43.25;;;;;;;;;;5110093;27;20819;-73
2022/12/17 16:01:23;;;;;;;96.95;41.42;;;;;;;;;;5114419;27;20447;-73
2022/12/17 16:03:49;;;;;;;98.03;42.15;;;;;;;;;;5116274;27;20395;-72
2022/12/17 16:06:15;;;;;;;94.85;42.53;;;;;;;;;;5078116;28;20415;-72
2022/12/17 16:08:42;;;;;;;96.70;42.38;;;;;;;;;;5095870;28;20412;-72
2022/12/17 16:11:08;;;;;;;98.53;42.28;;;;;;;;;;5099427;28;20420;-73
2022/12/17 16:13:35;;;;;;;94.97;40.43;;;;;;;;;;5129848;27;20431;-73
2022/12/17 16:16:01;;;;;;;96.63;39.83;;;;;;;;;;5095366;28;20892;-72
2022/12/17 16:18:27;;;;;;;96.82;39.75;;;;;;;;;;5112040;27;20514;-73
2022/12/17 16:20:53;;;;;;;94.68;41.65;;;;;;;;;;5091149;27;20410;-73
2022/12/17 16:23:20;;;;;;;100.78;41.97;;;;;;;;;;5101643;27;20406;-73
2022/12/17 16:25:55;;;;;;;101.22;40.63;;;;;;;;;;5114749;27;20422;-73
2022/12/17 16:28:21;;;;;;;96.25;40.97;;;;;;;;;;5111351;27;20418;-73
2022/12/17 16:30:57;;;;;;;102.47;42.42;;;;;;;;;;5081041;28;20420;-73
2022/12/17 16:33:23;;;;;;;98.50;40.92;;;;;;;;;;5095498;28;20899;-72
2022/12/17 16:35:52;;;;;;;101.53;42.03;;;;;;;;;;5078950;28;20443;-73
2022/12/17 16:38:19;;;;;;;97.50;43.25;;;;;;;;;;5101932;28;20511;-73
2022/12/17 16:40:46;;;;;;;104.93;42.53;;;;;;;;;;5095734;27;20397;-73
2022/12/17 16:43:12;;;;;;;108.47;44.63;;;;;;;;;;5093875;27;20457;-73
2022/12/17 16:45:45;;;;;;;108.63;44.17;;;;;;;;;;5115169;27;20977;-73
2022/12/17 16:48:11;;;;;;;104.38;42.75;;;;;;;;;;5114165;27;20448;-74
2022/12/17 16:50:37;;;;;;;111.67;43.03;;;;;;;;;;5103704;28;20430;-73
2022/12/17 16:53:03;;;;;;;107.13;42.97;;;;;;;;;;5098636;27;20479;-74
2022/12/17 16:55:29;;;;;;;110.57;41.92;;;;;;;;;;5108922;27;20913;-73
2022/12/17 16:57:55;;;;;;;107.55;43.63;;;;;;;;;;5106917;28;20416;-73
2022/12/17 17:00:22;;;;;;;109.15;41.63;;;;;;;;;;5107644;27;20455;-74
2022/12/17 17:02:48;;;;;;;94.70;40.50;;;;;;;;;;5084227;27;20425;-74
2022/12/17 17:05:14;;;;;;;102.63;41.38;;;;;;;;;;5113463;27;20410;-74
2022/12/17 17:07:40;;;;;;;106.15;42.40;;;;;;;;;;5111311;27;20442;-74
2022/12/17 17:10:06;;;;;;;106.00;41.83;;;;;;;;;;5114864;27;20394;-73
2022/12/17 17:12:32;;;;;;;111.25;45.45;;;;;;;;;;5113559;27;20403;-73
2022/12/17 17:14:58;;;;;;;107.90;42.80;;;;;;;;;;5110798;27;20905;-73
2022/12/17 17:17:24;;;;;;;108.03;44.13;;;;;;;;;;5113675;27;20529;-73
2022/12/17 17:19:50;;;;;;;114.30;45.85;;;;;;;;;;5107571;27;20415;-73
2022/12/17 17:22:16;;;;;;;104.22;42.47;;;;;;;;;;5108681;28;20415;-73
2022/12/17 17:24:42;;;;;;;122.93;42.55;;;;;;;;;;5094708;28;20558;-73
2022/12/17 17:27:09;;;;;;;125.00;43.30;;;;;;;;;;5093575;27;20423;-72
2022/12/17 17:29:35;;;;;;;109.55;41.75;;;;;;;;;;5078040;28;20424;-72
2022/12/17 17:32:01;;;;;;;118.65;43.42;;;;;;;;;;5110423;27;20603;-72
2022/12/17 17:34:27;;;;;;;118.20;43.63;;;;;;;;;;5078706;28;20418;-73
2022/12/17 17:36:53;;;;;;;139.60;47.90;;;;;;;;;;5098101;28;20454;-72
2022/12/17 17:39:19;;;;;;;124.53;47.03;;;;;;;;;;5094855;28;20415;-73
2022/12/17 17:41:45;;;;;;;114.53;43.67;;;;;;;;;;5114162;27;20391;-72
2022/12/17 17:44:12;;;;;;;122.90;44.42;;;;;;;;;;5113186;27;20403;-73
2022/12/17 17:46:39;;;;;;;178.40;49.25;;;;;;;;;;5094260;27;20446;-73
2022/12/17 17:49:06;;;;;;;124.07;43.97;;;;;;;;;;5096200;27;20398;-73
2022/12/17 17:51:33;;;;;;;122.07;43.92;;;;;;;;;;5111811;27;20414;-73
2022/12/17 17:54:00;;;;;;;132.60;44.70;;;;;;;;;;5106547;28;20422;-73
2022/12/17 17:56:27;;;;;;;202.48;50.90;;;;;;;;;;5079776;28;20493;-73
2022/12/17 17:59:05;;;;;;;124.50;44.80;;;;;;;;;;5094697;28;20780;-72
2022/12/17 18:01:32;;;;;;;127.65;44.30;;;;;;;;;;5105581;28;20416;-72
2022/12/17 18:04:00;;;;;;;125.47;43.58;;;;;;;;;;5088502;28;20420;-73
2022/12/17 18:06:26;;;;;;;292.02;55.28;;;;;;;;;;5080845;28;20495;-72
2022/12/17 18:08:54;;;;;;;146.52;46.20;;;;;;;;;;5073562;28;20498;-72
2022/12/17 18:11:21;;;;;;;127.50;45.15;;;;;;;;;;5101006;28;20420;-73
2022/12/17 18:13:53;;;;;;;120.47;41.88;;;;;;;;;;5081416;28;20497;-72
2022/12/17 18:16:20;;;;;;;123.40;43.55;;;;;;;;;;5094423;28;20486;-73
2022/12/17 18:18:46;;;;;;;133.23;44.55;;;;;;;;;;5078644;28;22191;-73
2022/12/17 18:21:13;;;;;;;121.78;42.85;;;;;;;;;;5076356;28;20416;-72
2022/12/17 18:23:39;;;;;;;120.95;42.42;;;;;;;;;;5105215;28;20840;-72
2022/12/17 18:26:05;;;;;;;120.73;43.90;;;;;;;;;;5095897;28;20406;-73
2022/12/17 18:28:31;;;;;;;120.97;41.97;;;;;;;;;;5109597;28;20414;-72
2022/12/17 18:30:58;;;;;;;113.47;40.75;;;;;;;;;;5090286;28;20882;-73
2022/12/17 18:33:24;;;;;;;119.00;41.40;;;;;;;;;;5103521;28;20952;-73
2022/12/17 18:35:50;;;;;;;117.93;43.88;;;;;;;;;;5098224;28;20410;-73
2022/12/17 18:38:16;;;;;;;124.50;41.95;;;;;;;;;;5104914;28;20434;-72
2022/12/17 18:40:42;;;;;;;124.95;40.63;;;;;;;;;;5093446;28;20397;-73
2022/12/17 18:43:23;;;;;;;122.38;40.55;;;;;;;;;;5103768;28;20743;-72
2022/12/17 18:45:53;;;;;;;119.72;40.28;;;;;;;;;;5108604;28;20920;-73
2022/12/17 18:48:19;;;;;;;121.55;43.47;;;;;;;;;;5080842;28;20414;-72
2022/12/17 18:50:45;;;;;;;122.10;40.47;;;;;;;;;;5110978;27;20889;-73
2022/12/17 18:53:12;;;;;;;126.07;41.55;;;;;;;;;;5070588;28;20415;-74
2022/12/17 18:55:39;;;;;;;134.07;46.13;;;;;;;;;;5101269;27;20426;-73
2022/12/17 18:58:09;;;;;;;116.90;41.20;;;;;;;;;;5109011;27;20421;-73
2022/12/17 19:00:36;;;;;;;127.63;42.92;;;;;;;;;;5103984;27;20418;-73
2022/12/17 19:03:04;;;;;;;137.13;46.63;;;;;;;;;;5114632;27;20414;-73
2022/12/17 19:05:30;;;;;;;122.75;41.30;;;;;;;;;;5104046;27;20754;-73
2022/12/17 19:07:56;;;;;;;122.35;42.65;;;;;;;;;;5091861;27;20426;-73
2022/12/17 19:10:22;;;;;;;124.97;45.08;;;;;;;;;;5078466;28;20732;-73
2022/12/17 19:12:48;;;;;;;123.25;43.60;;;;;;;;;;5109446;27;20422;-74
2022/12/17 19:15:14;;;;;;;125.07;43.70;;;;;;;;;;5083263;27;20961;-71
2022/12/17 19:17:40;;;;;;;129.30;45.30;;;;;;;;;;5106625;27;20422;-73
2022/12/17 19:20:07;;;;;;;146.85;46.22;;;;;;;;;;5077115;28;20412;-73
2022/12/17 19:22:33;;;;;;;127.33;43.23;;;;;;;;;;5095337;27;20421;-73
2022/12/17 19:24:59;;;;;;;130.88;43.95;;;;;;;;;;5068353;27;20863;-73
2022/12/17 19:27:25;;;;;;;123.20;42.57;;;;;;;;;;5112908;27;20450;-73
2022/12/17 19:29:53;;;;;;;122.05;43.33;;;;;;;;;;5112774;27;20495;-73
2022/12/17 19:32:19;;;;;;;123.47;42.65;;;;;;;;;;5086482;27;20439;-74
2022/12/17 19:34:45;;;;;;;125.28;43.53;;;;;;;;;;5081241;27;20420;-73
2022/12/17 19:37:12;;;;;;;254.80;52.80;;;;;;;;;;5099141;28;20417;-74
2022/12/17 19:39:38;;;;;;;127.90;43.55;;;;;;;;;;5094923;27;20940;-73
2022/12/17 19:42:04;;;;;;;123.32;41.97;;;;;;;;;;5101210;27;20423;-73
2022/12/17 19:44:30;;;;;;;111.43;46.53;;;;;;;;;;5086904;27;20427;-73
2022/12/17 19:46:57;;;;;;;115.13;43.97;;;;;;;;;;5107678;27;20411;-72
2022/12/17 19:49:23;;;;;;;112.82;42.33;;;;;;;;;;5103042;28;20408;-72
2022/12/17 19:51:49;;;;;;;123.18;42.85;;;;;;;;;;5095618;28;20392;-73
2022/12/17 19:54:15;;;;;;;115.60;43.72;;;;;;;;;;5086196;27;20408;-72
2022/12/17 19:56:42;;;;;;;121.82;44.33;;;;;;;;;;5112637;27;20410;-72
2022/12/17 19:59:09;;;;;;;115.20;43.50;;;;;;;;;;5091021;27;20457;-73
2022/12/17 20:01:37;;;;;;;114.60;43.80;;;;;;;;;;5088822;27;20501;-73
2022/12/17 20:04:03;;;;;;;118.70;46.38;;;;;;;;;;5100388;27;20416;-73
2022/12/17 20:06:30;;;;;;;109.53;41.15;;;;;;;;;;5076428;27;20448;-73
2022/12/17 20:09:00;;;;;;;110.47;43.72;;;;;;;;;;5082759;27;20435;-73
2022/12/17 20:11:33;;;;;;;113.03;43.25;;;;;;;;;;5088025;27;20417;-72
2022/12/17 20:14:02;;;;;;;111.27;43.37;;;;;;;;;;5107050;27;20639;-73
2022/12/17 20:16:29;;;;;;;107.38;43.65;;;;;;;;;;5098532;27;20407;-73
2022/12/17 20:18:55;;;;;;;108.27;44.70;;;;;;;;;;5113378;27;20987;-72
2022/12/17 20:21:21;;;;;;;107.38;42.80;;;;;;;;;;5096556;27;20475;-73
2022/12/17 20:23:50;;;;;;;107.07;45.33;;;;;;;;;;5076369;27;20421;-73
2022/12/17 20:26:16;;;;;;;107.70;43.53;;;;;;;;;;5086230;27;20426;-73
2022/12/17 20:28:43;;;;;;;103.90;46.38;;;;;;;;;;5113825;27;20495;-73
2022/12/17 20:31:09;;;;;;;102.75;43.58;;;;;;;;;;5108754;27;20486;-73
2022/12/17 20:33:35;;;;;;;102.55;44.03;;;;;;;;;;5098489;27;20415;-73
2022/12/17 20:36:04;;;;;;;109.43;44.00;;;;;;;;;;5106574;27;20536;-73
2022/12/17 20:38:30;;;;;;;112.90;46.65;;;;;;;;;;5097412;27;20415;-74
2022/12/17 20:40:57;;;;;;;112.00;45.03;;;;;;;;;;5101938;28;20447;-73
2022/12/17 20:43:23;;;;;;;122.15;49.58;;;;;;;;;;5086834;27;20724;-73
2022/12/17 20:45:50;;;;;;;115.80;45.47;;;;;;;;;;5105892;27;20428;-73
2022/12/17 20:48:16;;;;;;;114.63;46.17;;;;;;;;;;5100057;27;20484;-73
2022/12/17 20:50:43;;;;;;;112.30;45.17;;;;;;;;;;5109733;27;20522;-73
2022/12/17 20:53:09;;;;;;;113.72;45.10;;;;;;;;;;5101372;27;20596;-72
2022/12/17 20:55:35;;;;;;;110.47;45.10;;;;;;;;;;5079750;27;20910;-73
2022/12/17 20:58:01;;;;;;;112.15;45.30;;;;;;;;;;5096088;27;20459;-73
2022/12/17 21:00:27;;;;;;;124.80;50.30;;;;;;;;;;5099893;27;20425;-72
2022/12/17 21:02:53;;;;;;;125.05;47.38;;;;;;;;;;5099032;27;20430;-73
2022/12/17 21:05:19;;;;;;;120.47;47.42;;;;;;;;;;5105179;27;20445;-72
2022/12/17 21:07:46;;;;;;;116.10;46.65;;;;;;;;;;5101338;28;20915;-73
2022/12/17 21:10:13;;;;;;;114.13;44.93;;;;;;;;;;5109737;27;20716;-72
2022/12/17 21:13:39;;;;;;;112.85;47.03;;;;;;;;;;5112458;27;20415;-72
2022/12/17 21:15:34;;;;;;;111.25;45.42;;;;;;;;;;5085513;27;20414;-72
2022/12/17 21:18:00;;;;;;;109.43;44.35;;;;;;;;;;5110785;27;20454;-72
2022/12/17 21:20:26;;;;;;;116.78;46.65;;;;;;;;;;5103077;27;20421;-72
2022/12/17 21:22:52;;;;;;;112.25;43.80;;;;;;;;;;5101472;28;20427;-72
2022/12/17 21:25:18;;;;;;;107.67;45.33;;;;;;;;;;5094302;27;20782;-72
2022/12/17 21:27:44;;;;;;;110.80;45.33;;;;;;;;;;5104115;27;20410;-72
2022/12/17 21:30:10;;;;;;;112.22;47.00;;;;;;;;;;5084474;28;20408;-72
2022/12/17 21:32:39;;;;;;;113.85;45.80;;;;;;;;;;5084941;28;20871;-72
2022/12/17 21:35:06;;;;;;;108.85;46.25;;;;;;;;;;5106099;27;20778;-72
2022/12/17 21:37:32;;;;;;;112.82;44.83;;;;;;;;;;5106095;27;20415;-72
2022/12/17 21:39:58;;;;;;;112.32;45.08;;;;;;;;;;5095718;28;20423;-72
2022/12/17 21:45:08;;;;;;;110.07;46.00;;;;;;;;;;5100697;27;20511;-72
2022/12/17 21:47:36;;;;;;;109.75;45.53;;;;;;;;;;5083122;28;20497;-72
2022/12/17 21:50:02;;;;;;;114.30;46.75;;;;;;;;;;5099139;28;20891;-72
2022/12/17 21:52:28;;;;;;;121.43;47.05;;;;;;;;;;5082186;27;20419;-72
2022/12/17 21:54:54;;;;;;;114.63;46.65;;;;;;;;;;5071523;28;20429;-72
2022/12/17 21:57:20;;;;;;;122.73;46.67;;;;;;;;;;5081356;28;20420;-72
2022/12/17 21:59:46;;;;;;;124.18;48.75;;;;;;;;;;5096020;28;20487;-72
2022/12/17 22:02:12;;;;;;;116.77;46.93;;;;;;;;;;5093530;28;20457;-72
2022/12/17 22:04:38;;;;;;;111.75;47.70;;;;;;;;;;5100408;28;20512;-72
2022/12/17 22:07:04;;;;;;;121.60;48.47;;;;;;;;;;5112257;28;20501;-72
2022/12/17 22:09:30;;;;;;;118.13;47.10;;;;;;;;;;5095255;28;20424;-72
2022/12/17 22:14:01;;;;;;;118.28;46.80;;;;;;;;;;5093337;28;20425;-72
2022/12/17 22:14:42;;;;;;;123.80;47.08;;;;;;;;;;5109592;28;20501;-72
2022/12/17 22:17:08;;;;;;;121.25;47.05;;;;;;;;;;5112301;28;20418;-72
2022/12/17 22:19:34;;;;;;;120.13;47.72;;;;;;;;;;5111694;28;20490;-72
2022/12/17 22:22:00;;;;;;;120.15;46.45;;;;;;;;;;5103784;28;20683;-72
2022/12/17 22:24:26;;;;;;;122.07;46.70;;;;;;;;;;5099238;28;20457;-72
2022/12/17 22:26:59;;;;;;;125.57;47.38;;;;;;;;;;5096183;28;20793;-72
2022/12/17 22:34:56;;;;;;;118.53;45.55;;;;;;;;;;5106934;27;20420;-73
2022/12/17 22:37:22;;;;;;;119.60;47.33;;;;;;;;;;5115861;27;20414;-72
2022/12/17 22:39:48;;;;;;;117.65;45.42;;;;;;;;;;5112714;27;20418;-72
2022/12/17 22:44:59;;;;;;;117.03;47.85;;;;;;;;;;5114563;27;20493;-72
2022/12/17 22:47:29;;;;;;;122.97;46.13;;;;;;;;;;5116172;27;20501;-72
2022/12/17 22:49:55;;;;;;;129.20;46.88;;;;;;;;;;5084224;28;20473;-72
2022/12/17 22:52:21;;;;;;;126.10;45.93;;;;;;;;;;5096707;28;20404;-72
2022/12/17 22:54:47;;;;;;;127.97;49.65;;;;;;;;;;5079881;28;20419;-72
2022/12/17 22:57:13;;;;;;;133.52;51.22;;;;;;;;;;5102420;27;20418;-72
2022/12/17 22:59:39;;;;;;;123.30;45.10;;;;;;;;;;5096476;28;20431;-72
2022/12/17 23:02:06;;;;;;;131.73;46.03;;;;;;;;;;5096419;28;20521;-72
2022/12/17 23:04:32;;;;;;;118.35;45.13;;;;;;;;;;5085359;27;20415;-72
2022/12/17 23:06:58;;;;;;;129.38;45.22;;;;;;;;;;5110909;27;20475;-73
2022/12/17 23:09:24;;;;;;;137.82;46.30;;;;;;;;;;5095199;27;20418;-72
2022/12/17 23:11:51;;;;;;;135.35;45.15;;;;;;;;;;5078975;27;20412;-73
2022/12/17 23:14:17;;;;;;;141.07;47.42;;;;;;;;;;5088492;27;20406;-72
2022/12/17 23:16:43;;;;;;;129.93;45.45;;;;;;;;;;5114260;27;20422;-72
2022/12/17 23:19:10;;;;;;;135.48;46.25;;;;;;;;;;5097735;28;20412;-72
2022/12/17 23:21:37;;;;;;;133.27;47.33;;;;;;;;;;5096410;28;20457;-72
2022/12/17 23:24:03;;;;;;;133.05;45.90;;;;;;;;;;5095628;28;20416;-80
2022/12/17 23:26:33;;;;;;;135.27;48.20;;;;;;;;;;5132072;27;20551;-80
2022/12/17 23:29:01;;;;;;;138.82;48.05;;;;;;;;;;5112568;27;20940;-80
2022/12/17 23:31:28;;;;;;;144.10;50.60;;;;;;;;;;5096119;28;20419;-79
2022/12/17 23:33:54;;;;;;;141.35;47.90;;;;;;;;;;5105456;27;20417;-79
2022/12/17 23:36:21;;;;;;;145.95;47.95;;;;;;;;;;5097440;27;20431;-79
2022/12/17 23:38:48;;;;;;;150.63;47.47;;;;;;;;;;5114248;27;20427;-79
2022/12/17 23:41:15;;;;;;;146.80;48.92;;;;;;;;;;5077601;28;20416;-79
2022/12/17 23:43:41;;;;;;;148.50;46.90;;;;;;;;;;5105799;27;20427;-79
2022/12/17 23:46:08;;;;;;;160.00;48.67;;;;;;;;;;5082813;27;20425;-79
2022/12/17 23:48:35;;;;;;;142.23;45.45;;;;;;;;;;5121379;27;20414;-79
2022/12/17 23:51:01;;;;;;;190.97;55.07;;;;;;;;;;5106097;28;20475;-79
2022/12/17 23:53:28;;;;;;;362.15;63.38;;;;;;;;;;5096260;28;20469;-80
2022/12/17 23:55:54;;;;;;;267.17;53.20;;;;;;;;;;5098415;27;20510;-80
2022/12/17 23:58:21;;;;;;;157.70;50.90;;;;;;;;;;5108397;27;20849;-80
